Time;durP1;ratioP1;P1;durP2;ratioP2;P2;SDS_P1;SDS_P2;PMS_P1;PMS_P2;Temp;Humidity;BMP_temperature;BMP_pressure;BME280_temperature;BME280_humidity;BME280_pressure;Samples;Min_cycle;Max_cycle;Signal;HPM_P1;HPM_P2
2022/04/19 00:00:21;;;;;;;2.00;1.80;;;;;;;9.53;66.00;95875.38;5063235;28;20217;-87
2022/04/19 00:02:48;;;;;;;2.07;1.60;;;;;;;9.43;65.54;95867.09;5059602;28;20231;-87
2022/04/19 00:05:17;;;;;;;2.57;1.80;;;;;;;9.48;65.27;95864.50;5066948;28;20270;-87
2022/04/19 00:07:44;;;;;;;2.53;1.70;;;;;;;9.44;66.10;95857.97;5061882;28;20213;-87
2022/04/19 00:10:11;;;;;;;3.10;1.80;;;;;;;9.36;67.20;95852.91;5066151;28;20201;-87
2022/04/19 00:12:39;;;;;;;2.33;1.57;;;;;;;9.36;66.27;95853.72;5065019;28;20240;-87
2022/04/19 00:15:07;;;;;;;2.60;1.73;;;;;;;9.38;65.86;95846.22;5081397;28;20197;-87
2022/04/19 00:17:34;;;;;;;2.07;1.50;;;;;;;9.45;65.48;95843.41;5082157;28;20212;-87
2022/04/19 00:20:01;;;;;;;2.87;1.80;;;;;;;9.48;65.83;95843.78;5065771;28;20257;-87
2022/04/19 00:22:30;;;;;;;3.57;1.70;;;;;;;9.41;65.87;95843.06;5061277;28;20227;-87
2022/04/19 00:24:57;;;;;;;3.33;2.00;;;;;;;9.39;65.71;95841.66;5069008;28;20214;-87
2022/04/19 00:27:24;;;;;;;3.47;1.70;;;;;;;9.30;66.45;95837.69;5066841;28;20281;-86
2022/04/19 00:29:53;;;;;;;2.00;1.70;;;;;;;9.23;67.67;95842.38;5067089;28;20213;-86
2022/04/19 00:32:21;;;;;;;2.73;1.70;;;;;;;9.19;68.04;95839.31;5060987;28;20224;-87
2022/04/19 00:34:48;;;;;;;1.80;1.70;;;;;;;9.16;69.06;95836.28;5060468;28;20304;-87
2022/04/19 00:37:15;;;;;;;1.70;1.60;;;;;;;9.18;70.15;95845.78;5056230;28;20206;-88
2022/04/19 00:39:43;;;;;;;1.60;1.50;;;;;;;8.99;71.23;95836.16;5065869;28;20211;-87
2022/04/19 00:42:10;;;;;;;2.03;1.77;;;;;;;8.84;72.36;95836.63;5056789;28;20213;-87
2022/04/19 00:44:39;;;;;;;1.83;1.70;;;;;;;8.83;72.05;95837.66;5055173;28;20264;-87
2022/04/19 00:47:07;;;;;;;1.93;1.50;;;;;;;8.80;72.17;95837.28;5061152;28;20207;-87
2022/04/19 00:49:37;;;;;;;1.50;1.40;;;;;;;8.81;71.56;95844.31;5066719;28;20228;-87
2022/04/19 00:52:07;;;;;;;2.50;1.60;;;;;;;8.79;70.95;95833.78;5064534;28;20217;-87
2022/04/19 00:54:35;;;;;;;1.83;1.60;;;;;;;8.79;71.20;95835.66;5064302;28;20211;-86
2022/04/19 00:57:05;;;;;;;1.77;1.67;;;;;;;8.78;71.34;95834.00;5059169;28;20244;-86
2022/04/19 00:59:33;;;;;;;1.83;1.60;;;;;;;8.88;70.88;95842.34;5058123;28;20202;-87
2022/04/19 01:02:00;;;;;;;2.50;1.60;;;;;;;8.88;70.39;95831.56;5060493;28;20300;-87
2022/04/19 01:04:28;;;;;;;1.70;1.60;;;;;;;8.88;70.97;95828.88;5057364;28;20233;-87
2022/04/19 01:06:55;;;;;;;1.50;1.40;;;;;;;8.93;72.46;95820.94;5069662;28;20202;-87
2022/04/19 01:09:24;;;;;;;1.70;1.60;;;;;;;8.95;72.96;95824.19;5062472;28;20259;-87
2022/04/19 01:14:39;;;;;;;2.70;1.50;;;;;;;8.86;73.22;95828.28;5035586;28;20233;-87
2022/04/19 01:17:07;;;;;;;3.40;1.70;;;;;;;8.79;73.72;95830.25;5059527;28;20259;-87
2022/04/19 01:19:38;;;;;;;2.80;1.70;;;;;;;8.73;73.75;95824.75;5055992;28;20303;-88
2022/04/19 01:22:12;;;;;;;2.67;1.90;;;;;;;8.69;75.33;95823.56;5061283;28;20234;-87
2022/04/19 01:24:43;;;;;;;1.60;1.50;;;;;;;8.68;75.50;95821.94;5062869;28;20253;-88
2022/04/19 01:27:13;;;;;;;2.20;1.73;;;;;;;8.66;75.35;95826.75;5067949;28;20228;-87
2022/04/19 01:29:42;;;;;;;2.30;1.73;;;;;;;8.66;76.20;95831.31;5051616;28;20198;-87
2022/04/19 01:32:11;;;;;;;2.60;1.80;;;;;;;8.59;75.82;95819.81;5055718;28;20213;-87
2022/04/19 01:34:38;;;;;;;2.37;1.67;;;;;;;8.56;76.99;95814.91;5058303;28;20211;-87
2022/04/19 01:37:15;;;;;;;1.70;1.60;;;;;;;8.48;76.00;95824.13;5056125;28;20206;-87
2022/04/19 01:42:31;;;;;;;1.80;1.70;;;;;;;8.40;77.58;95815.56;5064322;28;20201;-87
2022/04/19 01:44:58;;;;;;;1.93;1.70;;;;;;;8.32;78.06;95814.84;5060885;28;20202;-86
2022/04/19 01:47:26;;;;;;;2.07;1.80;;;;;;;8.28;77.91;95812.78;5057402;28;20202;-87
2022/04/19 01:49:53;;;;;;;2.27;1.90;;;;;;;8.22;77.95;95809.16;5063753;28;20205;-87
2022/04/19 01:52:22;;;;;;;1.93;1.63;;;;;;;8.19;79.21;95806.09;5062906;28;20261;-88
2022/04/19 01:54:52;;;;;;;2.27;1.80;;;;;;;8.12;78.83;95806.19;5064829;28;20475;-87
2022/04/19 01:57:26;;;;;;;1.80;1.70;;;;;;;8.12;79.51;95811.56;5055714;28;20259;-86
2022/04/19 01:59:54;;;;;;;1.47;1.37;;;;;;;8.03;79.17;95804.03;5066156;28;20193;-87
2022/04/19 02:02:44;;;;;;;1.90;1.70;;;;;;;8.00;78.49;95791.88;5056152;28;20213;-87
2022/04/19 02:05:14;;;;;;;4.00;1.67;;;;;;;8.06;78.37;95799.03;5057507;28;20202;-86
2022/04/19 02:07:45;;;;;;;2.67;1.53;;;;;;;8.13;77.44;95810.53;5054120;28;20210;-87
2022/04/19 02:10:16;;;;;;;2.03;1.50;;;;;;;8.10;76.34;95804.75;5060196;28;20244;-87
2022/04/19 02:12:45;;;;;;;4.83;1.70;;;;;;;8.12;75.78;95803.50;5062908;28;20197;-87
2022/04/19 02:15:31;;;;;;;1.80;1.60;;;;;;;8.03;75.98;95799.47;5065118;28;20269;-87
2022/04/19 02:18:05;;;;;;;1.70;1.50;;;;;;;8.07;75.03;95789.09;5057757;28;20205;-87
2022/04/19 02:20:33;;;;;;;1.70;1.60;;;;;;;8.12;74.25;95794.59;5060112;28;20233;-87
2022/04/19 02:23:02;;;;;;;2.10;1.60;;;;;;;8.08;73.58;95790.75;5064942;28;20219;-85
2022/04/19 02:25:29;;;;;;;1.67;1.57;;;;;;;8.13;73.67;95799.75;5056628;28;20202;-86
2022/04/19 02:27:58;;;;;;;3.13;1.53;;;;;;;8.12;74.06;95803.50;5053579;28;20206;-87
2022/04/19 02:30:31;;;;;;;2.60;1.80;;;;;;;8.15;74.94;95792.28;5050133;28;20236;-87
2022/04/19 02:33:06;;;;;;;1.90;1.67;;;;;;;8.01;76.28;95795.38;5063650;28;20208;-87
2022/04/19 02:35:37;;;;;;;3.50;2.00;;;;;;;7.90;77.72;95800.50;5064440;28;20222;-87
2022/04/19 02:38:06;;;;;;;4.00;2.20;;;;;;;7.69;79.13;95784.84;5066218;28;20257;-86
2022/04/19 02:40:46;;;;;;;2.37;1.90;;;;;;;7.65;79.85;95790.91;5065046;28;20220;-86
2022/04/19 02:43:15;;;;;;;3.43;2.13;;;;;;;7.50;80.55;95788.56;5062186;28;20240;-87
2022/04/19 02:45:44;;;;;;;2.50;2.03;;;;;;;7.45;81.60;95783.88;5060945;28;20210;-86
2022/04/19 02:48:18;;;;;;;2.87;1.83;;;;;;;7.38;82.35;95791.19;5057979;28;20217;-87
2022/04/19 02:50:49;;;;;;;2.00;1.80;;;;;;;7.40;82.02;95799.84;5064594;28;20316;-88
2022/04/19 02:53:17;;;;;;;2.50;1.70;;;;;;;7.40;81.05;95796.34;5064438;28;20228;-86
2022/04/19 02:55:44;;;;;;;3.13;1.90;;;;;;;7.49;80.99;95801.19;5059384;28;20961;-87
2022/04/19 02:58:11;;;;;;;2.50;1.90;;;;;;;7.48;81.31;95799.56;5055450;28;20236;-87
2022/04/19 03:00:39;;;;;;;2.43;2.00;;;;;;;7.42;81.37;95783.50;5064461;28;20221;-87
2022/04/19 03:03:09;;;;;;;1.97;1.83;;;;;;;7.45;81.05;95794.63;5058860;28;20222;-86
2022/04/19 03:05:40;;;;;;;2.03;1.60;;;;;;;7.48;81.27;95791.50;5056830;28;20201;-86
2022/04/19 03:08:07;;;;;;;1.77;1.50;;;;;;;7.44;80.38;95790.28;5063834;28;20209;-87
2022/04/19 03:10:37;;;;;;;2.47;1.80;;;;;;;7.48;81.42;95786.13;5069564;28;20193;-87
2022/04/19 03:13:04;;;;;;;2.07;1.70;;;;;;;7.52;81.64;95787.31;5061306;28;20210;-86
2022/04/19 03:15:36;;;;;;;5.83;1.90;;;;;;;7.50;81.37;95789.41;5060601;28;20197;-86
2022/04/19 03:18:04;;;;;;;1.60;1.43;;;;;;;7.49;82.22;95785.06;5063699;28;20282;-87
2022/04/19 03:20:34;;;;;;;2.40;1.90;;;;;;;7.46;81.63;95787.41;5076656;28;20209;-87
2022/04/19 03:28:45;;;;;;;1.57;1.40;;;;;;;7.37;80.26;95778.00;5062156;28;20202;-86
2022/04/19 03:31:13;;;;;;;1.50;1.40;;;;;;;7.44;79.00;95781.41;5063300;28;20198;-86
2022/04/19 03:33:41;;;;;;;1.53;1.33;;;;;;;7.43;77.97;95777.91;5064955;28;20213;-86
2022/04/19 03:36:08;;;;;;;1.43;1.27;;;;;;;7.49;78.83;95777.00;5057205;28;20240;-87
2022/04/19 03:38:36;;;;;;;6.13;2.00;;;;;;;7.40;79.07;95772.97;5053759;28;20209;-88
2022/04/19 03:41:04;;;;;;;2.53;1.90;;;;;;;7.35;80.21;95788.13;5064601;28;20233;-86
2022/04/19 03:43:32;;;;;;;3.43;2.40;;;;;;;7.29;81.07;95776.44;5060300;28;20248;-87
2022/04/19 03:46:00;;;;;;;2.40;1.83;;;;;;;7.15;82.16;95780.28;5059518;28;20202;-87
2022/04/19 03:48:28;;;;;;;3.63;1.90;;;;;;;7.08;83.05;95779.53;5063511;28;20281;-86
2022/04/19 03:50:55;;;;;;;2.17;1.97;;;;;;;7.03;84.25;95774.84;5054881;28;20225;-87
2022/04/19 03:53:22;;;;;;;2.23;1.50;;;;;;;6.99;84.08;95765.56;5061329;28;20225;-87
2022/04/19 03:55:49;;;;;;;2.93;2.47;;;;;;;7.05;84.20;95777.31;5061485;28;20284;-87
2022/04/19 03:58:17;;;;;;;3.10;2.20;;;;;;;7.02;84.50;95785.78;5053116;28;20226;-86
2022/04/19 04:00:44;;;;;;;5.70;2.67;;;;;;;7.02;85.06;95780.44;5061412;28;20205;-88
2022/04/19 04:03:12;;;;;;;2.77;1.83;;;;;;;6.96;85.90;95774.09;5077315;28;20213;-87
2022/04/19 04:05:39;;;;;;;1.93;1.70;;;;;;;6.96;85.09;95781.31;5057293;28;20292;-86
2022/04/19 04:08:08;;;;;;;5.20;1.63;;;;;;;6.90;85.21;95771.44;5070390;28;20197;-87
2022/04/19 04:10:44;;;;;;;4.13;1.80;;;;;;;7.01;82.28;95778.78;5066108;28;20275;-86
2022/04/19 04:13:11;;;;;;;5.43;1.73;;;;;;;7.08;81.87;95779.53;5063981;28;20304;-87
2022/04/19 04:15:40;;;;;;;1.47;1.37;;;;;;;7.09;79.87;95783.88;5060410;28;20255;-87
2022/04/19 04:18:08;;;;;;;1.90;1.50;;;;;;;7.12;78.61;95773.50;5062491;28;20208;-86
2022/04/19 04:20:35;;;;;;;5.07;4.00;;;;;;;7.17;80.30;95779.03;5054524;28;20189;-86
2022/04/19 04:23:03;;;;;;;5.50;3.97;;;;;;;7.05;81.27;95767.41;5065703;28;20287;-86
2022/04/19 04:25:30;;;;;;;6.83;3.20;;;;;;;7.05;82.75;95774.63;5058777;28;20312;-87
2022/04/19 04:27:57;;;;;;;7.10;4.30;;;;;;;7.01;83.10;95773.41;5061444;28;20294;-86
2022/04/19 04:30:28;;;;;;;6.73;4.90;;;;;;;6.94;84.28;95778.03;5064872;28;20200;-86
2022/04/19 04:33:01;;;;;;;9.67;6.30;;;;;;;6.86;84.49;95787.19;5061989;28;20213;-87
2022/04/19 04:35:28;;;;;;;9.43;6.00;;;;;;;6.74;85.81;95788.94;5064439;28;20224;-86
2022/04/19 04:37:55;;;;;;;5.63;4.57;;;;;;;6.71;86.23;95784.03;5065959;28;20197;-87
2022/04/19 04:40:24;;;;;;;6.37;4.40;;;;;;;6.70;85.97;95782.38;5062554;28;20248;-87
2022/04/19 04:43:00;;;;;;;8.63;4.73;;;;;;;6.68;85.92;95777.22;5067391;28;20254;-85
2022/04/19 04:45:27;;;;;;;4.60;2.80;;;;;;;6.65;87.25;95791.06;5068110;28;20244;-86
2022/04/19 04:50:40;;;;;;;3.90;2.90;;;;;;;6.57;88.53;95785.16;5049977;28;20218;-86
2022/04/19 04:53:08;;;;;;;2.47;2.23;;;;;;;6.59;88.30;95791.97;5058611;28;20272;-86
2022/04/19 04:55:39;;;;;;;3.13;2.50;;;;;;;6.61;87.28;95776.47;5061647;28;20213;-86
2022/04/19 04:58:11;;;;;;;5.00;2.77;;;;;;;6.71;87.66;95779.50;5061781;28;20319;-86
2022/04/19 05:00:39;;;;;;;5.03;4.40;;;;;;;6.69;87.75;95792.28;5066634;28;20249;-86
2022/04/19 05:03:07;;;;;;;7.10;4.03;;;;;;;6.68;87.57;95792.50;5064318;28;20202;-86
2022/04/19 05:05:35;;;;;;;6.93;4.70;;;;;;;6.70;87.61;95788.56;5059695;28;20236;-86
2022/04/19 05:08:06;;;;;;;6.67;4.50;;;;;;;6.71;86.73;95792.91;5060494;28;20210;-86
2022/04/19 05:10:35;;;;;;;5.57;4.37;;;;;;;6.71;86.97;95792.91;5060587;28;20264;-86
2022/04/19 05:13:08;;;;;;;5.73;4.17;;;;;;;6.66;86.95;95790.03;5062552;28;20197;-85
2022/04/19 05:15:35;;;;;;;4.93;3.43;;;;;;;6.55;88.28;95788.06;5056798;28;20225;-86
2022/04/19 05:18:03;;;;;;;5.47;3.57;;;;;;;6.56;89.33;95784.34;5062898;28;20291;-87
2022/04/19 05:20:30;;;;;;;5.07;3.33;;;;;;;6.61;89.98;95794.44;5063978;28;20201;-86
2022/04/19 05:22:58;;;;;;;3.10;2.80;;;;;;;6.58;88.58;95797.53;5060206;28;20228;-86
2022/04/19 05:25:28;;;;;;;5.50;3.80;;;;;;;6.55;89.31;95798.78;5057021;28;21407;-87
2022/04/19 05:27:56;;;;;;;4.77;4.00;;;;;;;6.61;89.41;95792.56;5068518;28;20285;-85
2022/04/19 05:30:23;;;;;;;8.77;4.90;;;;;;;6.54;88.94;95781.09;5061667;28;20194;-88
2022/04/19 05:32:51;;;;;;;7.20;4.47;;;;;;;6.61;89.83;95794.44;5055584;28;20304;-87
2022/04/19 05:35:18;;;;;;;4.53;3.73;;;;;;;6.52;88.99;95785.00;5061429;28;20206;-87
2022/04/19 05:37:46;;;;;;;9.03;5.77;;;;;;;6.52;89.57;95791.19;5059563;28;20218;-87
2022/04/19 05:40:14;;;;;;;9.13;4.00;;;;;;;6.60;89.08;95798.16;5058161;28;20202;-87
2022/04/19 05:42:43;;;;;;;6.10;3.50;;;;;;;6.62;89.98;95794.22;5057340;28;20288;-87
2022/04/19 05:45:10;;;;;;;3.97;3.57;;;;;;;6.57;90.35;95782.47;5060994;28;20233;-86
2022/04/19 05:47:38;;;;;;;4.30;3.30;;;;;;;6.57;89.61;95779.81;5063038;28;20216;-87
2022/04/19 05:50:06;;;;;;;4.50;3.40;;;;;;;6.66;88.58;95792.72;5057973;28;20236;-86
2022/04/19 05:52:33;;;;;;;3.90;3.20;;;;;;;6.72;88.34;95786.47;5061487;28;20228;-86
2022/04/19 05:55:00;;;;;;;4.13;2.90;;;;;;;6.70;89.19;95788.56;5061205;28;20187;-86
2022/04/19 05:57:27;;;;;;;6.23;2.83;;;;;;;6.78;89.52;95790.97;5055806;28;20225;-86
2022/04/19 05:59:56;;;;;;;3.57;2.60;;;;;;;6.82;90.01;95797.53;5052098;28;20231;-86
2022/04/19 06:05:09;;;;;;;2.50;2.30;;;;;;;6.75;87.70;95786.03;5060124;28;20266;-87
2022/04/19 06:07:43;;;;;;;4.10;2.77;;;;;;;6.79;89.09;95787.25;5057976;28;20210;-87
2022/04/19 06:10:11;;;;;;;5.73;3.33;;;;;;;6.70;88.62;95777.03;5055737;28;20292;-86
2022/04/19 06:12:39;;;;;;;8.90;4.07;;;;;;;6.65;88.84;95777.66;5064927;28;20205;-85
2022/04/19 06:15:10;;;;;;;7.80;3.63;;;;;;;6.70;88.21;95783.22;5054577;28;20206;-87
2022/04/19 06:17:38;;;;;;;3.10;2.30;;;;;;;6.62;90.69;95778.13;5068896;28;20304;-86
2022/04/19 06:20:18;;;;;;;6.60;2.67;;;;;;;6.61;91.75;95779.16;5059278;28;20227;-86
2022/04/19 06:22:45;;;;;;;2.70;2.17;;;;;;;6.75;91.62;95786.03;5052420;28;20284;-87
2022/04/19 06:25:15;;;;;;;4.00;2.73;;;;;;;6.84;91.98;95790.09;5057037;28;20221;-87
2022/04/19 06:27:42;;;;;;;3.07;2.43;;;;;;;6.86;90.37;95786.38;5068924;28;20206;-86
2022/04/19 06:30:12;;;;;;;3.30;2.47;;;;;;;6.82;90.47;95789.47;5054974;28;20206;-87
2022/04/19 06:32:41;;;;;;;7.53;3.00;;;;;;;6.79;90.02;95787.25;5061063;28;20220;-86
2022/04/19 06:35:09;;;;;;;4.17;2.80;;;;;;;6.77;90.50;95789.34;5060810;28;20209;-86
2022/04/19 06:37:37;;;;;;;4.83;3.23;;;;;;;6.76;90.25;95776.13;5056394;28;20209;-87
2022/04/19 06:40:14;;;;;;;6.20;2.80;;;;;;;6.78;90.28;95784.78;5058484;28;20288;-86
2022/04/19 06:42:42;;;;;;;5.67;2.77;;;;;;;6.75;90.59;95780.69;5062246;28;20251;-86
2022/04/19 06:45:31;;;;;;;3.90;2.60;;;;;;;6.83;91.59;95780.38;5058505;28;20256;-86
2022/04/19 06:48:12;;;;;;;4.03;2.80;;;;;;;6.88;91.00;95782.44;5057896;28;20252;-86
2022/04/19 06:50:41;;;;;;;6.23;2.67;;;;;;;6.94;90.89;95791.44;5060072;28;20212;-84
2022/04/19 06:53:11;;;;;;;6.13;2.83;;;;;;;6.94;90.83;95788.78;5061744;28;20206;-85
2022/04/19 06:56:15;;;;;;;6.80;3.07;;;;;;;6.92;90.97;95791.66;5041937;28;20205;-85
2022/04/19 06:58:44;;;;;;;5.53;3.30;;;;;;;6.84;91.07;95779.34;5063250;28;20213;-84
2022/04/19 07:01:12;;;;;;;3.23;2.90;;;;;;;6.91;91.71;95789.19;5083745;28;20280;-83
2022/04/19 07:03:43;;;;;;;3.60;2.90;;;;;;;6.91;91.82;95776.59;5064207;28;20212;-84
2022/04/19 07:06:28;;;;;;;7.40;4.10;;;;;;;6.92;93.57;95774.75;5081429;28;20335;-84
2022/04/19 07:08:55;;;;;;;4.77;3.00;;;;;;;6.96;92.75;95773.28;5060966;28;20269;-83
2022/04/19 07:11:23;;;;;;;5.80;3.63;;;;;;;6.97;93.03;95780.28;5068424;28;20213;-83
2022/04/19 07:13:55;;;;;;;5.30;3.10;;;;;;;6.88;93.68;95765.50;5068846;28;20212;-83
2022/04/19 07:16:51;;;;;;;4.30;3.00;;;;;;;6.91;94.76;95767.72;5080959;28;20243;-84
2022/04/19 07:19:20;;;;;;;6.77;3.07;;;;;;;6.88;96.40;95765.50;5060984;28;20207;-84
2022/04/19 07:27:22;;;;;;;5.07;4.07;;;;;;;7.00;96.52;95766.41;5065630;28;20259;-84
2022/04/19 07:29:50;;;;;;;4.40;3.10;;;;;;;7.02;96.81;95758.97;5066853;28;20300;-84
2022/04/19 07:32:18;;;;;;;3.87;2.50;;;;;;;7.07;95.81;95767.16;5068479;28;20223;-84
2022/04/19 07:35:06;;;;;;;2.67;2.00;;;;;;;7.19;96.31;95768.06;5083001;28;20209;-84
2022/04/19 07:37:34;;;;;;;3.43;2.07;;;;;;;7.19;95.18;95760.00;5069084;28;20209;-85
2022/04/19 07:40:01;;;;;;;3.33;1.60;;;;;;;7.30;94.52;95772.69;5060236;28;20209;-85
2022/04/19 07:42:28;;;;;;;3.50;2.90;;;;;;;7.26;94.11;95755.38;5074487;28;20213;-85
2022/04/19 07:44:57;;;;;;;5.37;3.63;;;;;;;7.33;94.22;95766.88;5066290;28;20262;-84
2022/04/19 07:47:25;;;;;;;3.23;2.93;;;;;;;7.38;93.48;95758.97;5063526;28;20223;-85
2022/04/19 07:49:56;;;;;;;2.97;2.50;;;;;;;7.47;92.65;95752.25;5056102;28;20225;-84
2022/04/19 07:52:23;;;;;;;1.87;1.67;;;;;;;7.83;89.60;95745.16;5067744;28;20214;-84
2022/04/19 07:54:50;;;;;;;2.33;1.60;;;;;;;8.30;87.85;95752.34;5061985;28;20211;-85
2022/04/19 07:57:19;;;;;;;1.90;1.67;;;;;;;8.75;84.85;95743.78;5057868;28;20283;-86
2022/04/19 07:59:47;;;;;;;2.47;2.00;;;;;;;9.29;82.84;95733.66;5062873;28;20248;-84
2022/04/19 08:02:15;;;;;;;2.80;2.57;;;;;;;9.75;74.12;95732.75;5066114;28;20205;-85
2022/04/19 08:04:43;;;;;;;1.83;1.73;;;;;;;10.20;73.99;95736.34;5062378;28;20228;-84
2022/04/19 08:07:12;;;;;;;1.97;1.80;;;;;;;10.54;68.90;95733.66;5076385;28;20201;-85
2022/04/19 08:09:39;;;;;;;2.10;1.90;;;;;;;10.85;68.05;95724.16;5064544;28;20201;-84
2022/04/19 08:12:18;;;;;;;2.07;1.47;;;;;;;11.12;63.31;95722.41;5060354;28;20205;-85
2022/04/19 08:14:48;;;;;;;1.37;1.27;;;;;;;11.35;61.04;95730.28;5058944;28;20209;-84
2022/04/19 08:17:15;;;;;;;2.40;1.60;;;;;;;11.45;59.47;95716.09;5065492;28;20246;-83
2022/04/19 08:19:44;;;;;;;2.07;1.87;;;;;;;11.84;58.84;95724.97;5065906;28;20300;-84
2022/04/19 08:22:11;;;;;;;2.50;1.70;;;;;;;12.39;58.63;95721.22;5067786;28;20272;-84
2022/04/19 08:24:47;;;;;;;3.73;1.90;;;;;;;13.04;57.05;95720.09;5064446;28;20235;-85
2022/04/19 08:27:16;;;;;;;2.57;1.67;;;;;;;13.40;53.38;95716.56;5055238;28;20206;-84
2022/04/19 08:29:44;;;;;;;2.57;1.80;;;;;;;13.75;50.62;95713.22;5065553;28;20250;-84
2022/04/19 08:32:11;;;;;;;3.97;2.10;;;;;;;13.94;49.56;95706.22;5064355;28;20206;-84
2022/04/19 08:34:39;;;;;;;2.60;2.00;;;;;;;14.16;49.49;95714.16;5058903;28;20304;-83
2022/04/19 08:37:09;;;;;;;3.17;1.80;;;;;;;14.24;51.05;95705.47;5065972;28;20204;-84
2022/04/19 08:39:37;;;;;;;3.43;1.97;;;;;;;14.21;49.44;95705.19;5055771;28;20210;-84
2022/04/19 08:42:05;;;;;;;3.70;2.20;;;;;;;14.02;49.06;95703.00;5064580;28;20206;-84
2022/04/19 08:44:35;;;;;;;4.10;2.10;;;;;;;14.15;49.49;95698.94;5061999;28;20252;-85
2022/04/19 08:47:06;;;;;;;6.63;2.30;;;;;;;14.37;48.81;95693.28;5056495;28;20224;-84
2022/04/19 08:49:39;;;;;;;6.13;2.00;;;;;;;14.56;49.03;95690.88;5053489;28;20210;-85
2022/04/19 08:52:08;;;;;;;5.77;2.00;;;;;;;14.55;50.21;95700.09;5064642;28;20209;-84
2022/04/19 08:57:30;;;;;;;3.20;1.90;;;;;;;14.65;49.21;95694.69;5066116;28;20234;-85
2022/04/19 08:59:58;;;;;;;2.07;1.70;;;;;;;14.45;50.61;95690.06;5061112;28;20237;-84
2022/04/19 09:02:27;;;;;;;2.13;1.93;;;;;;;14.56;50.40;95688.97;5064125;28;20201;-85
2022/04/19 09:04:55;;;;;;;2.07;1.60;;;;;;;14.73;49.86;95680.53;5059264;28;20264;-84
2022/04/19 09:07:37;;;;;;;3.17;1.73;;;;;;;14.99;50.13;95684.88;5057842;28;20205;-85
2022/04/19 09:10:06;;;;;;;2.33;1.40;;;;;;;15.30;47.13;95690.28;5058854;28;20206;-85
2022/04/19 09:12:34;;;;;;;2.47;1.80;;;;;;;15.39;46.38;95688.63;5058698;28;20206;-85
2022/04/19 09:15:05;;;;;;;1.70;1.50;;;;;;;15.62;45.34;95682.59;5062679;28;20205;-85
2022/04/19 09:17:34;;;;;;;3.07;1.50;;;;;;;15.73;45.06;95684.19;5063250;28;20198;-85
2022/04/19 09:20:15;;;;;;;2.37;1.70;;;;;;;15.67;44.36;95677.09;5065737;28;20205;-86
2022/04/19 09:22:44;;;;;;;1.90;1.40;;;;;;;15.40;44.23;95669.28;5061779;28;20249;-85
2022/04/19 09:25:17;;;;;;;1.50;1.30;;;;;;;15.44;43.75;95672.28;5061978;28;20223;-86
2022/04/19 09:27:44;;;;;;;2.70;1.50;;;;;;;15.56;43.72;95661.94;5060541;28;20252;-85
2022/04/19 09:30:20;;;;;;;3.90;1.83;;;;;;;15.78;44.27;95664.28;5051948;28;20205;-85
2022/04/19 09:33:07;;;;;;;1.77;1.60;;;;;;;15.89;42.25;95663.97;5061519;28;20201;-86
2022/04/19 09:35:37;;;;;;;3.70;1.53;;;;;;;15.97;42.54;95657.09;5080757;28;20205;-85
2022/04/19 09:38:07;;;;;;;1.77;1.30;;;;;;;16.26;43.02;95657.19;5058624;28;20202;-85
2022/04/19 09:40:36;;;;;;;2.40;1.60;;;;;;;16.50;41.19;95649.91;5062303;28;20217;-85
2022/04/19 09:43:11;;;;;;;2.63;1.70;;;;;;;16.48;41.30;95645.88;5052658;28;20205;-85
2022/04/19 09:45:54;;;;;;;5.80;1.50;;;;;;;16.69;40.83;95655.53;5045668;28;20229;-85
2022/04/19 09:48:24;;;;;;;2.57;1.50;;;;;;;16.87;39.12;95648.56;5056305;28;20219;-85
2022/04/19 09:50:54;;;;;;;1.80;1.70;;;;;;;16.63;39.61;95632.16;5057005;28;20201;-84
2022/04/19 09:53:25;;;;;;;3.13;1.43;;;;;;;16.69;40.34;95635.63;5062157;28;20236;-85
2022/04/19 09:55:54;;;;;;;5.07;1.77;;;;;;;16.95;40.98;95639.75;5061059;28;20209;-85
2022/04/19 09:58:22;;;;;;;1.87;1.50;;;;;;;17.09;39.25;95637.19;5061577;28;20228;-85
2022/04/19 10:00:51;;;;;;;1.90;1.60;;;;;;;17.23;36.48;95630.75;5048120;28;20263;-85
2022/04/19 10:08:54;;;;;;;2.57;1.60;;;;;;;17.15;37.18;95620.47;5058909;28;20229;-85
2022/04/19 10:11:22;;;;;;;1.63;1.53;;;;;;;17.11;39.04;95624.03;5058399;28;20222;-85
2022/04/19 10:13:50;;;;;;;5.33;1.83;;;;;;;17.19;35.97;95620.69;5061312;28;20225;-84
2022/04/19 10:16:17;;;;;;;2.37;1.93;;;;;;;17.16;36.97;95618.56;5056046;28;20206;-86
2022/04/19 10:18:48;;;;;;;3.17;1.70;;;;;;;17.39;36.04;95612.28;5066769;28;20217;-86
2022/04/19 10:21:21;;;;;;;1.87;1.67;;;;;;;17.58;36.80;95609.59;5063929;28;20206;-85
2022/04/19 10:23:48;;;;;;;1.70;1.60;;;;;;;17.68;36.36;95607.59;5062090;28;20222;-86
2022/04/19 10:26:22;;;;;;;2.23;1.80;;;;;;;17.76;35.63;95606.13;5059726;28;20241;-85
2022/04/19 10:28:53;;;;;;;3.67;1.90;;;;;;;17.84;35.38;95602.75;5059026;28;20267;-85
2022/04/19 10:31:28;;;;;;;3.60;1.90;;;;;;;17.79;34.55;95589.13;5062967;28;20220;-85
2022/04/19 10:33:56;;;;;;;2.57;2.10;;;;;;;17.83;34.88;95584.72;5066813;28;20205;-85
2022/04/19 10:36:24;;;;;;;2.93;1.80;;;;;;;18.11;33.95;95593.88;5064643;28;20296;-86
2022/04/19 10:39:21;;;;;;;2.77;2.20;;;;;;;18.17;33.02;95586.41;5061957;28;20214;-85
2022/04/19 10:41:56;;;;;;;2.50;1.90;;;;;;;18.17;31.97;95581.75;5055325;28;20215;-85
2022/04/19 10:44:36;;;;;;;2.00;1.80;;;;;;;18.22;31.23;95581.69;5051866;28;20217;-85
2022/04/19 10:47:12;;;;;;;2.23;1.60;;;;;;;18.47;32.48;95578.53;5058915;28;20271;-85
2022/04/19 10:50:00;;;;;;;2.57;1.70;;;;;;;18.64;32.16;95578.00;5056923;28;20217;-85
2022/04/19 10:52:52;;;;;;;2.13;1.93;;;;;;;18.68;30.19;95573.56;5052357;28;20210;-85
2022/04/19 10:55:25;;;;;;;2.80;1.87;;;;;;;18.71;31.79;95573.00;5058651;28;20252;-85
2022/04/19 10:58:09;;;;;;;2.23;1.60;;;;;;;18.62;31.06;95568.50;5058573;28;20240;-84
2022/04/19 11:00:38;;;;;;;1.77;1.67;;;;;;;18.75;30.24;95560.31;5055142;28;20194;-84
2022/04/19 11:03:07;;;;;;;1.63;1.53;;;;;;;18.87;30.28;95557.91;5063817;28;20202;-85
2022/04/19 11:05:41;;;;;;;1.83;1.60;;;;;;;18.71;30.38;95555.78;5054041;28;20305;-85
2022/04/19 11:08:22;;;;;;;2.83;1.50;;;;;;;18.73;30.41;95554.34;5053795;28;20217;-84
2022/04/19 11:10:50;;;;;;;1.60;1.50;;;;;;;18.81;31.80;95550.91;5063630;28;20206;-85
2022/04/19 11:13:21;;;;;;;3.40;1.63;;;;;;;18.84;31.41;95549.50;5063896;28;20295;-85
2022/04/19 11:15:58;;;;;;;3.63;1.87;;;;;;;18.94;31.18;95548.50;5061045;28;20204;-84
2022/04/19 11:18:26;;;;;;;4.17;1.70;;;;;;;18.96;31.63;95546.28;5067746;28;20213;-85
2022/04/19 11:20:56;;;;;;;1.50;1.40;;;;;;;18.98;31.22;95535.81;5069974;28;20212;-85
2022/04/19 11:23:25;;;;;;;2.47;1.77;;;;;;;18.96;31.51;95541.63;5051630;28;20325;-85
2022/04/19 11:25:54;;;;;;;3.43;2.00;;;;;;;18.96;30.56;95532.59;5056688;28;20214;-86
2022/04/19 11:28:28;;;;;;;3.80;1.70;;;;;;;18.89;30.21;95530.25;5069737;28;20248;-86
2022/04/19 11:31:14;;;;;;;1.93;1.47;;;;;;;18.88;30.57;95518.50;5081723;28;20233;-85
2022/04/19 11:33:41;;;;;;;2.07;1.70;;;;;;;18.96;29.75;95517.00;5061749;28;20256;-86
2022/04/19 11:36:15;;;;;;;3.90;1.83;;;;;;;19.01;30.95;95513.34;5064073;28;20229;-85
2022/04/19 11:38:49;;;;;;;1.70;1.60;;;;;;;19.20;30.53;95512.13;5060515;28;20229;-86
2022/04/19 11:47:00;;;;;;;1.83;1.70;;;;;;;19.58;31.19;95499.00;5061650;28;20226;-85
2022/04/19 11:49:35;;;;;;;1.60;1.50;;;;;;;19.53;29.81;95490.94;5071364;28;20209;-85
2022/04/19 11:52:26;;;;;;;1.60;1.45;;;;;;;19.44;29.30;95503.69;5064152;28;20215;-85
2022/04/19 11:54:57;;;;;;;1.93;1.53;;;;;;;19.53;30.13;95485.47;5060230;28;20293;-85
2022/04/19 11:57:24;;;;;;;2.67;1.50;;;;;;;19.63;29.28;95490.72;5066271;28;20519;-85
2022/04/19 11:59:55;;;;;;;2.80;1.47;;;;;;;19.64;30.18;95484.13;5070348;28;20193;-85
2022/04/19 12:02:22;;;;;;;3.10;1.80;;;;;;;19.80;30.24;95483.75;5061468;28;20209;-86
2022/04/19 12:04:54;;;;;;;2.97;1.80;;;;;;;19.78;31.23;95475.84;5050983;28;20209;-85
2022/04/19 12:07:23;;;;;;;1.63;1.50;;;;;;;19.65;29.17;95485.72;5067331;28;20312;-85
2022/04/19 12:09:51;;;;;;;2.70;1.52;;;;;;;19.75;29.79;95478.38;5064107;28;20264;-85
2022/04/19 12:12:20;;;;;;;3.08;1.83;;;;;;;19.92;29.72;95473.03;5058147;28;20378;-86
2022/04/19 12:14:52;;;;;;;1.92;1.52;;;;;;;20.01;29.70;95477.47;5065170;28;20204;-85
2022/04/19 12:17:22;;;;;;;4.57;2.22;;;;;;;19.87;29.99;95478.66;5069669;28;20214;-84
2022/04/19 12:20:01;;;;;;;3.73;2.07;;;;;;;19.96;30.36;95471.31;5063815;28;20330;-84
2022/04/19 12:22:36;;;;;;;1.90;1.70;;;;;;;20.13;30.38;95482.41;5059892;28;20214;-84
2022/04/19 12:25:07;;;;;;;2.22;1.60;;;;;;;20.22;30.00;95475.06;5064443;28;20240;-84
2022/04/19 12:27:37;;;;;;;3.00;1.83;;;;;;;20.23;29.92;95473.94;5069954;28;20268;-85
2022/04/19 12:30:11;;;;;;;2.13;1.42;;;;;;;20.22;29.81;95466.84;5058645;28;20228;-84